Time;durP1;ratioP1;P1;durP2;ratioP2;P2;SDS_P1;SDS_P2;PMS_P1;PMS_P2;Temp;Humidity;BMP_temperature;BMP_pressure;BME280_temperature;BME280_humidity;BME280_pressure;Samples;Min_cycle;Max_cycle;Signal;HPM_P1;HPM_P2
2022/02/14 00:01:49;;;;;;;;;16.50;15.50;;;;;8.47;30.10;98944.19;6247930;27;97452;-71
2022/02/14 00:04:53;;;;;;;;;15.00;14.00;;;;;8.52;30.15;98943.56;6219166;28;99353;-71
2022/02/14 00:08:01;;;;;;;;;15.00;13.20;;;;;8.47;30.65;98933.44;6254946;27;97413;-70
2022/02/14 00:11:05;;;;;;;;;13.00;12.40;;;;;8.53;30.49;98940.66;6231457;27;96685;-71
2022/02/14 00:14:08;;;;;;;;;13.00;11.40;;;;;8.48;30.50;98935.09;6225909;28;97107;-70
2022/02/14 00:17:13;;;;;;;;;13.60;13.00;;;;;8.48;30.83;98934.25;6235215;27;97474;-71
2022/02/14 00:20:16;;;;;;;;;13.60;13.00;;;;;8.50;30.85;98937.56;6241911;27;98107;-71
2022/02/14 00:23:19;;;;;;;;;12.00;11.00;;;;;8.46;31.37;98928.25;6237453;27;97947;-69
2022/02/14 00:26:22;;;;;;;;;14.40;13.40;;;;;8.46;31.99;98929.09;6227588;27;97841;-71
2022/02/14 00:29:26;;;;;;;;;12.25;11.00;;;;;8.30;31.69;98899.13;6255898;27;97222;-69
2022/02/14 00:32:32;;;;;;;;;14.40;14.00;;;;;8.57;31.41;98933.00;6223928;27;96683;-70
2022/02/14 00:35:36;;;;;;;;;12.40;11.00;;;;;8.61;31.76;98921.63;6231140;27;96963;-71
2022/02/14 00:38:39;;;;;;;;;15.00;12.00;;;;;8.47;31.65;98887.75;6236595;27;96849;-71
2022/02/14 00:41:45;;;;;;;;;14.60;13.00;;;;;8.67;31.70;98912.75;6254921;27;98142;-70
2022/02/14 00:44:48;;;;;;;;;14.50;13.50;;;;;8.38;31.78;98944.59;6242899;27;96815;-70
2022/02/14 00:47:53;;;;;;;;;12.80;12.00;;;;;8.49;32.27;98907.19;6224009;27;97040;-70
2022/02/14 00:50:57;;;;;;;;;16.00;14.00;;;;;8.31;32.49;98915.03;6222492;27;97028;-71
2022/02/14 00:54:00;;;;;;;;;15.00;14.60;;;;;7.99;32.46;98905.06;6242029;27;97826;-69
2022/02/14 00:57:04;;;;;;;;;16.00;15.00;;;;;7.73;32.16;98901.31;6264442;27;96631;-70
2022/02/14 01:00:11;;;;;;;;;18.80;16.80;;;;;7.47;32.38;98901.25;6250032;27;96721;-70
2022/02/14 01:03:18;;;;;;;;;17.60;16.00;;;;;6.87;32.44;98837.69;6229646;27;97781;-69
2022/02/14 01:06:22;;;;;;;;;23.00;20.00;;;;;7.08;32.42;98904.59;6242182;27;97801;-70
2022/02/14 01:09:25;;;;;;;;;22.60;20.00;;;;;6.96;33.16;98901.63;6247537;27;97467;-70
2022/02/14 01:12:29;;;;;;;;;22.00;20.00;;;;;6.67;33.18;98866.22;6230011;27;98829;-70
2022/02/14 01:15:33;;;;;;;;;24.40;21.00;;;;;6.70;33.20;98882.72;6235243;27;97791;-71
2022/02/14 01:18:37;;;;;;;;;26.75;23.00;;;;;6.60;33.43;98879.56;6263803;27;96565;-69
2022/02/14 01:21:42;;;;;;;;;24.00;21.40;;;;;6.53;33.44;98874.19;6243612;27;98601;-69
2022/02/14 01:24:45;;;;;;;;;27.33;25.00;;;;;6.40;33.69;98867.91;6230321;28;97485;-70
2022/02/14 01:27:49;;;;;;;;;25.00;22.00;;;;;6.04;34.02;98815.34;6223559;28;97035;-70
2022/02/14 01:30:53;;;;;;;;;27.00;21.75;;;;;6.29;34.05;98861.25;6235688;27;98349;-71
2022/02/14 01:33:57;;;;;;;;;28.40;24.00;;;;;6.25;34.49;98859.97;6236023;27;99351;-69
2022/02/14 01:37:00;;;;;;;;;23.60;20.60;;;;;6.25;34.45;98857.31;6213480;28;97858;-71
2022/02/14 01:40:05;;;;;;;;;22.00;19.50;;;;;6.25;35.16;98851.94;6223319;28;96497;-70
2022/02/14 01:43:09;;;;;;;;;23.60;22.00;;;;;6.23;35.18;98842.44;6241209;27;98392;-71
2022/02/14 01:46:13;;;;;;;;;25.60;22.00;;;;;6.24;35.25;98850.28;6244200;27;96724;-70
2022/02/14 01:49:17;;;;;;;;;23.60;20.20;;;;;6.22;35.40;98846.13;6221878;28;99595;-69
2022/02/14 01:52:23;;;;;;;;;26.00;22.00;;;;;6.19;35.45;98833.16;6241829;27;97508;-70
2022/02/14 01:55:26;;;;;;;;;25.50;22.50;;;;;6.15;36.01;98831.91;6233702;27;98657;-69
2022/02/14 01:58:29;;;;;;;;;22.00;21.80;;;;;6.14;36.19;98823.03;6255398;27;96402;-70
2022/02/14 02:01:32;;;;;;;;;23.50;20.50;;;;;6.16;35.89;98836.22;6250337;27;96716;-70
2022/02/14 02:04:38;;;;;;;;;23.00;20.00;;;;;6.17;36.37;98829.84;6259228;27;97505;-70
2022/02/14 02:07:42;;;;;;;;;23.50;21.50;;;;;6.13;35.82;98833.94;6243529;27;96876;-70
2022/02/14 02:10:45;;;;;;;;;26.60;23.80;;;;;6.11;35.89;98827.97;6264137;27;98116;-70
2022/02/14 02:13:49;;;;;;;;;22.40;20.00;;;;;6.11;36.48;98819.94;6257526;27;97074;-70
2022/02/14 02:16:52;;;;;;;;;21.75;20.00;;;;;6.15;36.25;98807.81;6242051;27;99607;-71
2022/02/14 02:19:57;;;;;;;;;19.00;18.00;;;;;6.22;36.82;98809.50;6244048;27;97015;-70
2022/02/14 02:23:01;;;;;;;;;22.00;20.00;;;;;6.25;36.33;98810.97;6247712;27;96478;-69
2022/02/14 02:26:06;;;;;;;;;21.40;16.40;;;;;6.30;36.69;98808.53;6246133;27;97507;-71
2022/02/14 02:29:11;;;;;;;;;22.00;21.00;;;;;6.30;36.42;98811.22;6260250;27;96457;-70
2022/02/14 02:32:15;;;;;;;;;25.80;23.00;;;;;6.24;36.46;98807.47;6259876;27;97119;-70
2022/02/14 02:35:18;;;;;;;;;23.00;21.40;;;;;6.05;36.26;98770.69;6250829;27;98286;-69
2022/02/14 02:38:23;;;;;;;;;21.80;20.00;;;;;6.17;36.42;98797.72;6238386;27;96458;-70
2022/02/14 02:41:28;;;;;;;;;21.00;18.00;;;;;6.23;37.25;98796.94;6253424;27;96671;-70
2022/02/14 02:44:32;;;;;;;;;26.60;23.00;;;;;6.30;36.37;98789.78;6242036;27;97509;-70
2022/02/14 02:47:37;;;;;;;;;19.80;18.60;;;;;6.37;36.43;98785.28;6234741;27;97504;-70
2022/02/14 02:51:01;;;;;;;;;21.00;18.00;;;;;6.38;36.41;98786.94;6224293;28;98127;-71
2022/02/14 02:54:04;;;;;;;;;25.20;20.60;;;;;6.34;36.39;98781.16;6240882;27;96354;-69
2022/02/14 02:57:09;;;;;;;;;25.50;23.00;;;;;6.32;36.43;98788.56;6242080;27;96947;-70
2022/02/14 03:00:16;;;;;;;;;26.00;23.80;;;;;6.20;36.70;98783.97;6261901;27;96647;-70
2022/02/14 03:03:20;;;;;;;;;27.25;24.00;;;;;6.11;36.89;98779.78;6256879;27;97449;-70
2022/02/14 03:06:25;;;;;;;;;27.75;23.00;;;;;5.99;37.00;98774.97;6212932;28;99426;-70
2022/02/14 03:09:28;;;;;;;;;26.50;24.00;;;;;5.82;37.25;98770.88;6234160;27;96824;-71
2022/02/14 03:12:33;;;;;;;;;29.20;27.00;;;;;5.81;36.91;98781.78;6252848;27;96710;-70
2022/02/14 03:15:36;;;;;;;;;32.40;27.40;;;;;5.73;37.30;98782.75;6243254;27;98124;-69
2022/02/14 03:18:40;;;;;;;;;32.75;29.00;;;;;5.28;37.39;98740.41;6225412;27;98180;-69
2022/02/14 03:21:43;;;;;;;;;37.00;30.00;;;;;4.94;37.69;98707.16;6258108;27;97446;-70
2022/02/14 03:24:46;;;;;;;;;32.40;29.00;;;;;5.47;37.78;98774.50;6223605;27;98387;-70
2022/02/14 03:27:51;;;;;;;;;33.00;29.60;;;;;5.45;37.62;98777.38;6243488;27;99421;-70
2022/02/14 03:30:55;;;;;;;;;32.60;27.60;;;;;5.42;37.98;98783.09;6242163;27;97450;-70
2022/02/14 03:33:58;;;;;;;;;34.80;29.00;;;;;5.37;37.67;98777.50;6238939;27;97436;-71
2022/02/14 03:37:02;;;;;;;;;30.75;27.00;;;;;5.30;37.95;98773.94;6235907;27;98444;-70
2022/02/14 03:40:06;;;;;;;;;38.00;30.60;;;;;5.17;38.17;98757.78;6239804;27;97135;-70
2022/02/14 03:43:11;;;;;;;;;32.67;28.67;;;;;5.27;38.45;98768.97;6239132;27;99154;-71
2022/02/14 03:46:15;;;;;;;;;32.60;28.20;;;;;5.26;38.31;98770.00;6233526;27;99481;-71
2022/02/14 03:49:18;;;;;;;;;35.20;30.00;;;;;4.98;38.42;98737.84;6263965;27;96613;-69
2022/02/14 03:52:21;;;;;;;;;37.60;30.00;;;;;5.20;38.58;98781.44;6233944;28;98523;-69
2022/02/14 03:55:25;;;;;;;;;33.60;29.00;;;;;5.21;38.33;98775.91;6222955;28;98618;-70
2022/02/14 03:58:29;;;;;;;;;33.40;28.60;;;;;5.13;38.83;98765.31;6241666;27;98044;-69
2022/02/14 04:01:33;;;;;;;;;33.00;29.00;;;;;5.15;38.89;98773.97;6235382;27;97990;-70
2022/02/14 04:04:36;;;;;;;;;33.20;29.20;;;;;5.11;39.03;98782.56;6263756;27;96790;-70
2022/02/14 04:07:40;;;;;;;;;32.25;28.50;;;;;5.07;39.00;98776.78;6260714;27;98696;-69
2022/02/14 04:10:43;;;;;;;;;33.60;28.40;;;;;5.07;38.98;98776.78;6244769;27;96454;-70
2022/02/14 04:13:48;;;;;;;;;36.60;29.00;;;;;5.03;39.13;98769.34;6238831;27;98467;-70
2022/02/14 04:16:51;;;;;;;;;33.60;29.40;;;;;5.03;38.95;98772.00;6258496;27;97243;-69
2022/02/14 04:19:54;;;;;;;;;32.80;27.20;;;;;5.04;38.83;98769.13;6246316;27;96746;-70
2022/02/14 04:22:58;;;;;;;;;31.00;27.20;;;;;5.05;39.44;98769.97;6251967;27;96716;-69
2022/02/14 04:26:01;;;;;;;;;34.00;28.00;;;;;5.06;39.23;98767.13;6241819;27;97939;-69
2022/02/14 04:29:06;;;;;;;;;26.00;23.00;;;;;4.85;39.23;98724.34;6240246;27;99586;-69
2022/02/14 04:32:09;;;;;;;;;29.00;25.50;;;;;5.01;39.56;98766.84;6248346;27;96622;-70
2022/02/14 04:35:13;;;;;;;;;29.20;25.20;;;;;5.01;39.67;98768.69;6266307;27;96408;-70
2022/02/14 04:38:16;;;;;;;;;30.40;26.40;;;;;4.94;39.48;98757.91;6246505;27;97492;-70
2022/02/14 04:41:19;;;;;;;;;27.00;24.00;;;;;4.96;39.61;98755.91;6213350;27;97405;-70
2022/02/14 04:44:24;;;;;;;;;33.00;28.00;;;;;4.94;39.91;98757.91;6241459;28;96411;-70
2022/02/14 04:47:28;;;;;;;;;43.20;33.60;;;;;4.98;39.60;98761.91;6216578;28;98382;-70
2022/02/14 04:50:31;;;;;;;;;42.20;33.00;;;;;4.97;39.58;98752.22;6261221;27;96540;-69
2022/02/14 04:53:34;;;;;;;;;39.60;32.00;;;;;4.94;39.56;98747.25;6262002;27;97445;-70
2022/02/14 04:56:38;;;;;;;;;42.50;33.25;;;;;4.86;40.06;98747.38;6243676;27;97289;-70
2022/02/14 04:59:42;;;;;;;;;60.80;46.00;;;;;4.82;39.82;98753.28;6227650;27;96831;-69
2022/02/14 05:02:46;;;;;;;;;46.00;39.00;;;;;4.70;39.89;98735.06;6252177;27;96682;-70
2022/02/14 05:05:56;;;;;;;;;50.75;39.75;;;;;4.79;39.35;98741.94;6247891;27;96469;-69
2022/02/14 05:08:59;;;;;;;;;41.00;33.00;;;;;4.60;40.12;98715.00;6248745;27;96703;-70
2022/02/14 05:12:02;;;;;;;;;36.67;32.33;;;;;4.78;40.08;98751.00;6242884;27;97949;-70
2022/02/14 05:15:08;;;;;;;;;36.50;32.00;;;;;4.39;39.82;98712.31;6222892;27;99113;-69
2022/02/14 05:18:11;;;;;;;;;38.00;32.00;;;;;4.33;39.79;98680.00;6246823;27;97699;-69
2022/02/14 05:21:14;;;;;;;;;34.40;31.40;;;;;4.76;40.28;98760.19;6241366;27;97517;-71
2022/02/14 05:24:17;;;;;;;;;34.50;30.00;;;;;4.78;39.97;98761.66;6251155;27;96617;-69
2022/02/14 05:27:21;;;;;;;;;36.40;32.00;;;;;4.71;40.62;98739.38;6249609;27;97064;-69
2022/02/14 05:30:26;;;;;;;;;42.00;33.80;;;;;4.75;40.43;98764.69;6252898;27;96462;-71
2022/02/14 05:33:30;;;;;;;;;38.20;32.00;;;;;4.67;39.96;98754.13;6237339;27;96687;-70
2022/02/14 05:36:33;;;;;;;;;38.00;32.00;;;;;4.73;40.36;98755.22;6250649;27;96621;-71
2022/02/14 05:39:37;;;;;;;;;34.00;30.50;;;;;4.70;40.22;98760.94;6244408;27;99540;-70
2022/02/14 05:42:40;;;;;;;;;32.80;30.00;;;;;4.74;40.11;98764.91;6248148;27;99767;-70
2022/02/14 05:45:45;;;;;;;;;39.60;33.00;;;;;4.75;40.38;98770.03;6227546;28;96780;-70
2022/02/14 05:48:50;;;;;;;;;35.00;31.00;;;;;4.73;40.08;98765.91;6247832;27;97567;-70
2022/02/14 05:51:54;;;;;;;;;34.50;30.00;;;;;4.77;40.03;98773.38;6262564;27;97521;-71
2022/02/14 05:54:57;;;;;;;;;38.00;32.00;;;;;4.17;40.13;98669.53;6237553;27;98409;-70
2022/02/14 05:58:00;;;;;;;;;36.25;31.25;;;;;4.85;40.55;98780.44;6223446;27;98768;-70
2022/02/14 06:01:08;;;;;;;;;41.00;32.00;;;;;4.92;39.89;98772.50;6228720;27;99360;-71
2022/02/14 06:04:12;;;;;;;;;38.00;31.00;;;;;4.98;40.15;98774.44;6215272;28;97080;-70
2022/02/14 06:07:15;;;;;;;;;37.00;32.00;;;;;4.86;40.10;98747.38;6213598;28;97702;-71
2022/02/14 06:10:18;;;;;;;;;38.50;32.50;;;;;5.10;40.07;98781.75;6219023;27;97582;-71
2022/02/14 06:13:22;;;;;;;;;37.25;31.00;;;;;5.17;39.79;98779.97;6235088;28;97472;-70
2022/02/14 06:16:26;;;;;;;;;37.00;31.20;;;;;5.16;39.68;98750.75;6235162;28;97629;-70
2022/02/14 06:19:30;;;;;;;;;34.50;30.50;;;;;5.41;39.44;98770.75;6219097;27;97403;-71
2022/02/14 06:22:33;;;;;;;;;35.00;32.00;;;;;5.65;39.32;98778.38;6206058;28;99828;-71
2022/02/14 06:25:37;;;;;;;;;38.00;32.20;;;;;5.76;39.25;98747.59;6236422;28;97726;-69
2022/02/14 06:28:40;;;;;;;;;35.50;31.00;;;;;6.46;38.40;98770.69;6233736;27;97452;-71
2022/02/14 06:31:45;;;;;;;;;35.40;32.00;;;;;6.91;37.27;98770.09;6233480;28;96966;-73
2022/02/14 06:34:48;;;;;;;;;38.80;32.40;;;;;7.36;36.62;98754.31;6235468;28;98495;-72
2022/02/14 06:37:52;;;;;;;;;38.00;32.00;;;;;8.03;35.37;98759.47;6236057;28;96813;-71
2022/02/14 06:40:55;;;;;;;;;39.00;32.00;;;;;9.14;33.81;98750.22;6234276;27;99533;-73
2022/02/14 06:43:59;;;;;;;;;35.40;30.80;;;;;10.71;31.36;98757.97;6232207;27;97883;-71
2022/02/14 06:47:04;;;;;;;;;39.00;33.00;;;;;12.42;28.99;98758.09;6234565;28;96689;-73
2022/02/14 06:50:09;;;;;;;;;44.40;35.00;;;;;14.07;26.75;98747.19;6233171;27;97170;-73
2022/02/14 06:53:12;;;;;;;;;40.60;35.20;;;;;15.49;24.95;98744.38;6231212;28;97436;-72
2022/02/14 06:56:16;;;;;;;;;45.80;39.00;;;;;16.60;23.44;98752.66;6227807;27;98430;-70
2022/02/14 06:59:19;;;;;;;;;46.67;38.00;;;;;17.55;22.13;98743.19;6235348;27;98943;-71
2022/02/14 07:02:24;;;;;;;;;45.00;36.40;;;;;18.43;21.28;98749.19;6258727;27;97180;-72
2022/02/14 07:05:33;;;;;;;;;47.00;38.00;;;;;19.27;20.29;98751.13;6243004;27;97755;-70
2022/02/14 07:08:37;;;;;;;;;42.40;35.00;;;;;20.12;19.55;98753.59;6242689;27;98113;-70
2022/02/14 07:11:44;;;;;;;;;42.20;35.00;;;;;20.85;18.68;98747.94;6241639;27;97535;-71
2022/02/14 07:14:47;;;;;;;;;46.40;37.20;;;;;21.57;18.55;98747.56;6257986;27;97449;-73
2022/02/14 07:17:52;;;;;;;;;44.80;37.80;;;;;22.19;17.60;98750.19;6248448;27;97630;-75
2022/02/14 07:20:55;;;;;;;;;43.60;35.00;;;;;22.66;17.43;98751.81;6238460;27;98156;-73
2022/02/14 07:23:59;;;;;;;;;44.00;36.00;;;;;23.30;16.35;98746.13;6242256;27;98023;-70
2022/02/14 07:27:02;;;;;;;;;45.60;37.40;;;;;23.77;16.48;98744.00;6255345;27;97484;-70
2022/02/14 07:30:08;;;;;;;;;45.00;36.00;;;;;24.25;15.49;98732.38;6257575;27;96964;-74
2022/02/14 07:33:13;;;;;;;;;41.50;33.00;;;;;24.98;15.30;98740.06;6255155;27;97274;-71
2022/02/14 07:36:16;;;;;;;;;38.50;33.00;;;;;25.49;14.84;98733.03;6258719;27;96583;-73
2022/02/14 07:39:19;;;;;;;;;37.00;32.00;;;;;25.80;14.71;98723.47;6241542;27;97635;-69
2022/02/14 07:42:23;;;;;;;;;37.00;31.00;;;;;26.36;14.13;98734.66;6260591;27;97193;-70
2022/02/14 07:45:26;;;;;;;;;35.40;31.00;;;;;26.87;13.99;98729.00;6260744;27;97209;-69
2022/02/14 07:48:30;;;;;;;;;33.75;30.00;;;;;27.14;13.87;98728.53;6263339;27;96548;-71
2022/02/14 07:51:34;;;;;;;;;33.40;30.00;;;;;27.30;13.63;98733.47;6225622;27;97200;-69
2022/02/14 07:54:38;;;;;;;;;34.00;30.20;;;;;27.61;13.39;98736.72;6259343;27;96611;-72
2022/02/14 07:57:43;;;;;;;;;31.80;28.00;;;;;28.00;13.45;98738.19;6240820;27;99467;-72
2022/02/14 08:00:46;;;;;;;;;30.50;29.50;;;;;28.48;13.15;98729.25;6244394;27;97537;-72
2022/02/14 08:03:51;;;;;;;;;29.75;27.75;;;;;28.72;12.56;98731.28;6259926;27;97440;-71
2022/02/14 08:07:10;;;;;;;;;27.00;25.50;;;;;29.06;12.63;98727.28;6225033;27;99458;-71
2022/02/14 08:10:14;;;;;;;;;21.00;20.00;;;;;29.28;12.54;98724.00;6256537;27;97370;-72
2022/02/14 08:13:18;;;;;;;;;17.50;16.50;;;;;29.27;12.60;98725.97;6257234;27;97498;-71
2022/02/14 08:16:21;;;;;;;;;21.60;20.00;;;;;29.42;12.73;98721.69;6261230;27;96569;-71
2022/02/14 08:19:26;;;;;;;;;21.00;19.00;;;;;29.82;11.85;98741.16;6245116;27;98119;-73
2022/02/14 08:22:30;;;;;;;;;20.40;18.00;;;;;30.36;11.80;98724.88;6246864;27;97545;-74
2022/02/14 08:25:34;;;;;;;;;19.00;17.00;;;;;30.74;11.41;98731.88;6241975;27;97147;-71
2022/02/14 08:28:38;;;;;;;;;21.00;17.00;;;;;31.13;11.25;98730.09;6242051;27;97739;-73
2022/02/14 08:31:42;;;;;;;;;20.00;18.60;;;;;31.16;11.02;98716.25;6241096;27;99750;-71
2022/02/14 08:34:46;;;;;;;;;19.60;17.60;;;;;31.00;10.65;98676.44;6243835;27;97053;-70
2022/02/14 08:37:53;;;;;;;;;16.00;15.40;;;;;31.01;11.13;98714.25;6239146;27;97484;-70
2022/02/14 08:40:58;;;;;;;;;17.20;15.60;;;;;31.27;11.28;98713.72;6258144;27;96915;-72
2022/02/14 08:44:01;;;;;;;;;17.50;15.50;;;;;30.91;11.09;98714.78;6242153;27;99489;-71
2022/02/14 08:47:06;;;;;;;;;13.20;12.20;;;;;30.76;11.37;98705.28;6266149;27;97200;-72
2022/02/14 08:50:11;;;;;;;;;15.33;15.00;;;;;30.95;10.72;98704.53;6249786;27;97443;-72
2022/02/14 08:53:17;;;;;;;;;18.00;17.00;;;;;31.02;11.24;98698.38;6264282;27;97695;-71
2022/02/14 08:56:20;;;;;;;;;15.00;14.00;;;;;31.10;11.01;98700.97;6245917;27;98854;-72
2022/02/14 08:59:24;;;;;;;;;15.25;14.25;;;;;31.39;10.88;98699.66;6244425;27;97573;-72
2022/02/14 09:02:27;;;;;;;;;15.00;14.00;;;;;31.38;10.77;98689.66;6264832;27;97921;-72
2022/02/14 09:05:32;;;;;;;;;13.40;12.40;;;;;30.93;11.21;98688.22;6238548;27;97964;-72
2022/02/14 09:08:35;;;;;;;;;14.00;14.00;;;;;30.71;11.26;98696.38;6244913;27;97147;-72
2022/02/14 09:11:41;;;;;;;;;12.75;11.75;;;;;30.97;11.07;98682.75;6244425;27;97535;-70
2022/02/14 09:14:44;;;;;;;;;14.25;12.25;;;;;31.15;11.05;98689.56;6244977;27;97723;-70
2022/02/14 09:17:47;;;;;;;;;14.20;12.20;;;;;30.90;11.10;98688.13;6246343;27;98405;-71
2022/02/14 09:20:52;;;;;;;;;12.40;12.00;;;;;30.72;11.12;98681.31;6242889;27;97494;-74
2022/02/14 09:23:55;;;;;;;;;13.60;12.00;;;;;30.56;10.81;98692.44;6244615;27;96663;-73
2022/02/14 09:26:59;;;;;;;;;13.00;12.50;;;;;30.47;11.57;98683.47;6264982;27;97536;-74
2022/02/14 09:30:03;;;;;;;;;16.00;14.40;;;;;30.46;11.58;98673.50;6243908;27;97497;-74
2022/02/14 09:33:07;;;;;;;;;12.50;11.00;;;;;30.46;11.13;98682.66;6260044;27;97415;-74
2022/02/14 09:36:12;;;;;;;;;14.00;11.00;;;;;30.35;11.39;98670.41;6261197;27;96618;-73
2022/02/14 09:39:15;;;;;;;;;14.00;14.00;;;;;30.11;11.13;98673.31;6259217;27;98009;-69
2022/02/14 09:42:20;;;;;;;;;11.60;11.40;;;;;30.37;11.77;98672.84;6261150;27;97590;-72
2022/02/14 09:45:30;;;;;;;;;14.50;13.50;;;;;30.47;11.29;98664.00;6261281;27;96821;-71
2022/02/14 09:48:34;;;;;;;;;14.00;14.00;;;;;29.56;11.47;98666.59;6223102;27;98346;-73
2022/02/14 09:51:39;;;;;;;;;13.25;13.25;;;;;29.32;11.64;98657.53;6241400;27;99212;-74
2022/02/14 09:54:42;;;;;;;;;15.80;14.00;;;;;29.78;11.88;98662.44;6235411;27;97511;-73
2022/02/14 09:57:47;;;;;;;;;14.00;13.00;;;;;30.06;11.94;98643.81;6261813;27;97115;-74
2022/02/14 10:00:50;;;;;;;;;14.00;14.00;;;;;30.23;11.39;98661.34;6243820;27;97481;-74
2022/02/14 10:03:55;;;;;;;;;14.50;14.25;;;;;29.98;11.71;98661.47;6245149;27;97195;-73
2022/02/14 10:07:11;;;;;;;;;16.00;16.00;;;;;29.92;11.77;98632.31;6242292;27;97183;-72
2022/02/14 10:10:17;;;;;;;;;14.50;13.00;;;;;29.56;12.20;98661.03;6246546;27;100182;-73
2022/02/14 10:13:33;;;;;;;;;15.25;14.50;;;;;29.36;11.99;98663.97;6265564;27;96501;-72
2022/02/14 10:16:37;;;;;;;;;16.00;15.20;;;;;29.41;11.74;98652.63;6242059;27;96690;-71
2022/02/14 10:19:45;;;;;;;;;14.00;13.25;;;;;29.33;12.43;98646.03;6259368;27;98383;-71
2022/02/14 10:22:58;;;;;;;;;15.40;14.40;;;;;29.83;12.11;98655.81;6243924;27;98418;-73
2022/02/14 10:26:05;;;;;;;;;16.50;15.00;;;;;29.78;11.96;98651.34;6240735;27;98950;-72
2022/02/14 10:29:15;;;;;;;;;12.00;11.00;;;;;29.73;11.83;98629.34;6238568;27;97917;-71
2022/02/14 10:32:20;;;;;;;;;16.40;13.00;;;;;29.41;12.08;98639.56;6225898;27;99312;-72
2022/02/14 10:35:24;;;;;;;;;13.00;12.00;;;;;29.85;11.58;98645.19;6261379;27;97352;-70
2022/02/14 10:38:38;;;;;;;;;13.00;12.00;;;;;29.56;11.80;98635.22;6260564;27;97504;-72
2022/02/14 10:41:43;;;;;;;;;14.60;13.00;;;;;29.09;12.17;98629.41;6243872;27;97144;-73
2022/02/14 10:48:14;;;;;;;;;15.00;13.00;;;;;28.65;12.85;98622.81;6243041;27;96890;-73
2022/02/14 10:51:18;;;;;;;;;14.00;12.60;;;;;28.46;12.53;98614.28;6227240;27;97635;-73
2022/02/14 10:54:27;;;;;;;;;14.00;14.00;;;;;28.31;12.98;98640.72;6242029;27;98087;-73
2022/02/14 10:57:32;;;;;;;;;16.00;14.40;;;;;27.76;12.89;98592.06;6261199;27;97470;-73
2022/02/14 11:00:38;;;;;;;;;14.00;14.00;;;;;28.32;12.47;98622.94;6238299;28;98282;-73
2022/02/14 11:03:43;;;;;;;;;14.00;13.00;;;;;28.22;12.59;98618.66;6234327;27;97188;-71
2022/02/14 11:06:49;;;;;;;;;15.00;13.50;;;;;27.74;12.92;98619.31;6234406;28;96951;-74
2022/02/14 11:09:57;;;;;;;;;14.20;13.80;;;;;27.69;12.96;98605.66;6237174;28;97365;-75
2022/02/14 11:13:02;;;;;;;;;13.60;13.60;;;;;25.94;13.98;98584.41;6232776;28;97110;-73
2022/02/14 11:16:09;;;;;;;;;12.40;12.00;;;;;26.79;13.99;98604.53;6235136;28;97664;-74
2022/02/14 11:19:13;;;;;;;;;17.40;14.00;;;;;27.49;13.49;98598.19;6234564;28;98386;-72
2022/02/14 11:22:17;;;;;;;;;13.00;13.00;;;;;27.82;13.04;98604.53;6237950;28;96827;-72
2022/02/14 11:25:32;;;;;;;;;15.00;14.00;;;;;27.99;12.55;98603.56;6234152;28;98199;-73
2022/02/14 11:28:38;;;;;;;;;15.00;14.00;;;;;27.94;13.13;98595.47;6236311;27;98626;-72
2022/02/14 11:31:41;;;;;;;;;15.00;14.00;;;;;27.66;13.08;98580.63;6233652;28;97184;-71
2022/02/14 11:34:57;;;;;;;;;13.00;12.00;;;;;27.52;13.44;98609.41;6232465;28;98288;-73
2022/02/14 11:38:01;;;;;;;;;15.00;13.00;;;;;27.40;13.39;98584.41;6233800;27;96562;-71
2022/02/14 11:41:27;;;;;;;;;15.00;13.40;;;;;27.43;12.96;98577.38;6235879;27;97146;-73
2022/02/14 11:44:30;;;;;;;;;15.00;13.00;;;;;27.23;13.17;98565.16;6234329;28;97493;-69
2022/02/14 11:47:34;;;;;;;;;15.00;15.00;;;;;27.49;13.06;98584.34;6230692;27;97155;-69
2022/02/14 11:50:41;;;;;;;;;14.25;14.25;;;;;27.51;13.43;98579.31;6234188;28;98244;-75
2022/02/14 11:53:47;;;;;;;;;14.00;13.40;;;;;27.71;13.15;98580.41;6225168;27;97053;-73
2022/02/14 11:56:53;;;;;;;;;15.00;14.00;;;;;27.82;12.66;98574.06;6232522;27;97630;-72
2022/02/14 12:00:23;;;;;;;;;14.00;12.00;;;;;27.91;13.01;98576.75;6237028;27;97416;-74
2022/02/14 12:03:27;;;;;;;;;16.00;14.00;;;;;27.88;12.95;98569.13;6240133;27;97219;-73
2022/02/14 12:06:30;;;;;;;;;16.40;14.00;;;;;28.24;12.89;98568.41;6237707;27;98041;-71
2022/02/14 12:10:18;;;;;;;;;15.00;14.00;;;;;27.87;12.67;98568.31;6234403;27;98407;-71
2022/02/14 12:13:25;;;;;;;;;16.40;14.00;;;;;28.18;13.09;98562.28;6236595;27;97480;-73
2022/02/14 12:23:36;;;;;;;;;14.00;14.00;;;;;26.58;13.72;98549.22;6260781;27;98135;-71
2022/02/14 12:26:40;;;;;;;;;15.40;14.00;;;;;26.72;13.81;98538.69;6244681;27;96982;-72
2022/02/14 12:29:45;;;;;;;;;15.00;14.60;;;;;26.98;13.30;98538.50;6245303;27;100039;-72
2022/02/14 12:32:49;;;;;;;;;17.00;15.50;;;;;27.11;13.64;98532.72;6262385;27;96889;-71
2022/02/14 12:35:55;;;;;;;;;14.00;13.60;;;;;27.27;13.40;98527.34;6261794;27;96969;-71
2022/02/14 12:38:58;;;;;;;;;16.40;15.00;;;;;27.55;13.59;98524.84;6260289;27;97537;-73
2022/02/14 12:42:20;;;;;;;;;15.20;13.60;;;;;26.86;13.25;98527.38;6241978;27;96668;-74
2022/02/14 12:45:30;;;;;;;;;16.50;15.50;;;;;26.24;14.13;98525.34;6245419;27;98107;-73
2022/02/14 12:48:34;;;;;;;;;15.80;13.80;;;;;26.22;13.91;98520.13;6247575;27;97546;-72
2022/02/14 12:51:38;;;;;;;;;15.60;15.00;;;;;26.32;13.90;98518.94;6245029;27;97737;-71
2022/02/14 12:54:51;;;;;;;;;14.20;14.00;;;;;26.44;14.12;98509.94;6259661;27;97422;-71
2022/02/14 12:57:56;;;;;;;;;16.00;15.60;;;;;25.96;14.14;98513.06;6243309;27;96833;-72
2022/02/14 13:01:05;;;;;;;;;14.60;13.00;;;;;25.84;14.10;98509.06;6263583;27;98069;-71
2022/02/14 13:04:10;;;;;;;;;14.00;13.00;;;;;25.48;14.58;98499.56;6239670;27;98281;-74
2022/02/14 13:07:15;;;;;;;;;15.25;13.25;;;;;25.46;14.58;98502.66;6260102;27;96572;-71
2022/02/14 13:10:18;;;;;;;;;14.00;13.00;;;;;25.21;14.57;98490.53;6241462;27;96996;-72
2022/02/14 13:13:37;;;;;;;;;15.75;13.25;;;;;25.02;14.76;98492.84;6258044;27;97228;-70
2022/02/14 13:16:50;;;;;;;;;14.00;13.80;;;;;24.70;14.59;98446.41;6239859;27;97604;-75
2022/02/14 13:19:55;;;;;;;;;14.00;13.00;;;;;24.90;14.71;98484.38;6227335;27;97016;-69
2022/02/14 13:23:00;;;;;;;;;13.20;12.00;;;;;24.68;15.00;98487.28;6241689;27;98492;-73
2022/02/14 13:26:22;;;;;;;;;14.50;13.50;;;;;24.60;15.24;98484.19;6238394;27;98170;-72
2022/02/14 13:29:37;;;;;;;;;14.60;13.60;;;;;24.42;15.26;98478.97;6219394;27;99664;-72
2022/02/14 13:32:45;;;;;;;;;14.00;13.00;;;;;24.38;15.61;98476.06;6226637;27;97786;-74
2022/02/14 13:35:49;;;;;;;;;10.50;10.50;;;;;24.26;15.08;98470.38;6240099;27;97912;-72
2022/02/14 13:38:54;;;;;;;;;13.00;12.00;;;;;24.05;15.35;98461.03;6240040;27;96907;-71
2022/02/14 13:41:57;;;;;;;;;13.00;12.00;;;;;23.20;15.90;98465.00;6226894;27;97390;-72
2022/02/14 13:45:01;;;;;;;;;12.00;11.00;;;;;22.56;16.40;98469.03;6260269;27;97807;-73
2022/02/14 13:48:20;;;;;;;;;12.50;12.00;;;;;22.02;16.98;98474.31;6264952;27;96550;-70
2022/02/14 13:51:25;;;;;;;;;14.00;13.00;;;;;21.43;17.32;98461.44;6258554;27;97476;-71
2022/02/14 13:54:28;;;;;;;;;13.00;11.40;;;;;21.05;17.79;98459.91;6257061;27;98131;-68
2022/02/14 13:57:32;;;;;;;;;12.25;11.00;;;;;20.71;18.30;98447.31;6261473;27;97470;-69
2022/02/14 14:00:39;;;;;;;;;10.00;9.00;;;;;20.03;18.30;98424.19;6259765;27;97327;-72
2022/02/14 14:03:44;;;;;;;;;9.80;8.80;;;;;20.09;18.44;98439.41;6260909;27;97394;-72
2022/02/14 14:06:49;;;;;;;;;9.00;8.60;;;;;20.21;18.47;98417.91;6258565;27;98054;-74
2022/02/14 14:09:54;;;;;;;;;8.80;8.20;;;;;20.22;18.11;98414.09;6227942;27;97773;-74
2022/02/14 14:12:57;;;;;;;;;9.00;8.00;;;;;20.09;18.12;98428.47;6242263;27;97647;-73
2022/02/14 14:16:01;;;;;;;;;10.00;10.00;;;;;20.08;18.44;98429.59;6224119;27;98183;-73
2022/02/14 14:19:06;;;;;;;;;12.00;11.20;;;;;19.90;18.57;98410.13;6241928;27;98356;-75
2022/02/14 14:22:09;;;;;;;;;10.80;10.00;;;;;19.83;18.12;98423.38;6226990;27;97455;-72
2022/02/14 14:25:12;;;;;;;;;9.00;9.00;;;;;19.44;17.73;98409.06;6244342;27;96975;-71
2022/02/14 14:28:16;;;;;;;;;8.00;8.00;;;;;19.75;17.97;98434.13;6242783;27;96952;-71